createdAt,value
2022-09-28T00:01:32.721Z,12.36
2022-09-28T00:04:01.964Z,12.33
2022-09-28T00:06:30.683Z,12.31
2022-09-28T00:09:41.346Z,12.27
2022-09-28T00:15:19.289Z,12.21
2022-09-28T00:18:38.748Z,12.16
2022-09-28T00:24:39.451Z,12.06
2022-09-28T00:30:10.339Z,11.96
2022-09-28T00:33:17.899Z,11.94
2022-09-28T00:36:09.579Z,11.91
2022-09-28T00:38:42.311Z,11.95
2022-09-28T00:41:26.630Z,11.90
2022-09-28T00:43:54.968Z,11.88
2022-09-28T00:46:35.111Z,11.87
2022-09-28T00:49:11.496Z,11.79
2022-09-28T00:51:41.029Z,11.71
2022-09-28T00:54:14.633Z,11.72
2022-09-28T00:56:45.403Z,11.66
2022-09-28T00:59:16.422Z,11.63
2022-09-28T01:01:45.112Z,11.59
2022-09-28T01:04:12.662Z,11.50
2022-09-28T01:06:40.477Z,11.49
2022-09-28T01:09:10.774Z,11.52
2022-09-28T01:11:39.600Z,11.46
2022-09-28T01:14:10.296Z,11.41
2022-09-28T01:16:59.101Z,11.40
2022-09-28T01:19:40.114Z,11.28
2022-09-28T01:22:25.794Z,11.39
2022-09-28T01:25:07.174Z,11.35
2022-09-28T01:27:45.015Z,11.41
2022-09-28T01:30:18.809Z,11.41
2022-09-28T01:33:06.331Z,11.40
2022-09-28T01:35:37.670Z,11.40
2022-09-28T01:38:21.320Z,11.32
2022-09-28T01:40:49.554Z,11.31
2022-09-28T01:43:22.757Z,11.31
2022-09-28T01:45:55.870Z,11.21
2022-09-28T01:48:37.535Z,11.18
2022-09-28T01:51:09.382Z,11.18
2022-09-28T01:53:48.807Z,11.18
2022-09-28T01:56:24.650Z,11.04
2022-09-28T01:59:06.355Z,10.98
2022-09-28T02:02:05.696Z,10.92
2022-09-28T02:04:35.486Z,10.68
2022-09-28T02:07:28.241Z,10.60
2022-09-28T02:10:01.089Z,10.62
2022-09-28T02:12:36.210Z,10.54
2022-09-28T02:15:20.465Z,10.60
2022-09-28T02:17:48.045Z,10.51
2022-09-28T02:20:15.988Z,10.57
2022-09-28T02:22:52.834Z,10.60
2022-09-28T02:25:35.601Z,10.58
2022-09-28T02:28:06.049Z,10.58
2022-09-28T02:30:36.890Z,10.48
2022-09-28T02:33:15.463Z,10.45
2022-09-28T02:35:43.679Z,10.51
2022-09-28T02:38:12.573Z,10.56
2022-09-28T02:40:40.472Z,10.62
2022-09-28T02:43:16.392Z,10.62
2022-09-28T02:46:06.207Z,10.59
2022-09-28T02:49:21.037Z,10.50
2022-09-28T02:52:14.067Z,10.56
2022-09-28T02:55:35.107Z,10.56
2022-09-28T02:58:16.887Z,10.54
2022-09-28T03:01:04.099Z,10.54
2022-09-28T03:03:53.518Z,10.52
2022-09-28T03:06:33.999Z,10.45
2022-09-28T03:09:23.473Z,10.43
2022-09-28T03:11:56.046Z,10.41
2022-09-28T03:14:23.948Z,10.46
2022-09-28T03:16:51.268Z,10.44
2022-09-28T03:19:22.901Z,10.45
2022-09-28T03:21:50.042Z,10.44
2022-09-28T03:24:17.039Z,10.40
2022-09-28T03:26:43.968Z,10.34
2022-09-28T03:29:10.935Z,10.27
2022-09-28T03:31:38.351Z,10.32
2022-09-28T03:34:05.482Z,10.30
2022-09-28T03:36:32.576Z,10.27
2022-09-28T03:38:59.835Z,10.22
2022-09-28T03:41:30.315Z,10.23
2022-09-28T03:43:58.157Z,10.26
2022-09-28T03:46:28.672Z,10.28
2022-09-28T03:48:58.465Z,10.23
2022-09-28T03:51:26.694Z,10.24
2022-09-28T03:53:53.810Z,10.23
2022-09-28T03:56:20.812Z,10.21
2022-09-28T03:58:47.930Z,10.12
2022-09-28T04:01:18.377Z,10.14
2022-09-28T04:03:46.728Z,10.11
2022-09-28T04:06:20.982Z,10.06
2022-09-28T04:08:48.087Z,10.02
2022-09-28T04:11:15.331Z,10.08
2022-09-28T04:13:48.291Z,10.07
2022-09-28T04:16:16.384Z,10.04
2022-09-28T04:18:43.772Z,10.00
2022-09-28T04:21:15.713Z,10.01
2022-09-28T04:23:43.468Z,10.02
2022-09-28T04:26:22.210Z,9.94
2022-09-28T04:29:08.227Z,9.94
2022-09-28T04:31:40.786Z,9.89
2022-09-28T04:34:08.205Z,9.93
2022-09-28T04:36:35.256Z,9.99
2022-09-28T04:39:02.507Z,10.00
2022-09-28T04:41:29.625Z,9.99
2022-09-28T04:44:01.940Z,10.02
2022-09-28T04:46:29.188Z,9.99
2022-09-28T04:48:56.352Z,10.05
2022-09-28T04:51:23.511Z,10.07
2022-09-28T04:53:50.847Z,10.06
2022-09-28T04:56:19.228Z,10.10
2022-09-28T04:58:51.741Z,10.12
2022-09-28T05:01:23.941Z,10.14
2022-09-28T05:03:55.887Z,10.16
2022-09-28T05:06:23.666Z,10.19
2022-09-28T05:08:50.661Z,10.23
2022-09-28T05:11:18.656Z,10.21
2022-09-28T05:13:46.002Z,10.23
2022-09-28T05:16:16.174Z,10.18
2022-09-28T05:18:43.380Z,10.27
2022-09-28T05:21:14.543Z,10.33
2022-09-28T05:23:46.576Z,10.37
2022-09-28T05:26:14.239Z,10.40
2022-09-28T05:28:44.962Z,10.46
2022-09-28T05:31:12.108Z,10.49
2022-09-28T05:33:40.542Z,10.55
2022-09-28T05:36:14.251Z,10.57
2022-09-28T05:38:41.178Z,10.60
2022-09-28T05:41:08.417Z,10.69
2022-09-28T05:43:35.512Z,10.85
2022-09-28T05:46:08.612Z,10.97
2022-09-28T05:48:35.757Z,11.13
2022-09-28T05:51:02.901Z,11.37
2022-09-28T05:53:30.089Z,11.50
2022-09-28T05:56:00.238Z,11.77
2022-09-28T05:58:28.660Z,11.99
2022-09-28T06:00:57.061Z,12.35
2022-09-28T06:03:24.693Z,12.58
2022-09-28T06:05:51.627Z,12.92
2022-09-28T06:08:19.004Z,13.19
2022-09-28T06:10:46.466Z,13.50
2022-09-28T06:13:13.462Z,13.60
2022-09-28T06:15:42.810Z,13.84
2022-09-28T06:18:17.420Z,14.06
2022-09-28T06:20:44.531Z,14.39
2022-09-28T06:23:12.805Z,14.59
2022-09-28T06:25:40.445Z,14.91
2022-09-28T06:28:11.520Z,15.16
2022-09-28T06:30:39.235Z,15.37
2022-09-28T06:33:08.657Z,15.56
2022-09-28T06:35:36.212Z,15.83
2022-09-28T06:38:03.697Z,16.09
2022-09-28T06:40:31.481Z,16.27
2022-09-28T06:43:02.297Z,16.49
2022-09-28T06:45:30.767Z,16.69
2022-09-28T06:48:01.099Z,16.95
2022-09-28T06:50:32.484Z,17.20
2022-09-28T06:53:01.173Z,17.36
2022-09-28T06:55:29.122Z,17.42
2022-09-28T06:58:07.348Z,17.60
2022-09-28T07:00:36.605Z,17.82
2022-09-28T07:03:06.374Z,17.98
2022-09-28T07:05:37.478Z,18.14
2022-09-28T07:08:05.426Z,18.32
2022-09-28T07:10:32.786Z,18.46
2022-09-28T07:13:05.749Z,18.63
2022-09-28T07:15:34.093Z,18.61
2022-09-28T07:18:03.445Z,18.84
2022-09-28T07:20:32.467Z,19.02
2022-09-28T07:23:14.733Z,19.26
2022-09-28T07:25:48.193Z,19.55
2022-09-28T07:28:16.028Z,19.82
2022-09-28T07:30:44.983Z,19.99
2022-09-28T07:33:15.630Z,20.16
2022-09-28T07:35:50.874Z,20.26
2022-09-28T07:38:18.129Z,20.53
2022-09-28T07:41:03.918Z,20.64
2022-09-28T07:43:30.910Z,20.91
2022-09-28T07:45:58.397Z,21.11
2022-09-28T07:48:25.628Z,21.30
2022-09-28T07:50:57.509Z,21.41
2022-09-28T07:53:26.140Z,21.52
2022-09-28T07:56:02.175Z,21.73
2022-09-28T07:58:29.755Z,21.90
2022-09-28T08:00:56.759Z,22.13
2022-09-28T08:03:24.040Z,22.29
2022-09-28T08:05:50.959Z,22.37
2022-09-28T08:08:18.700Z,22.52
2022-09-28T08:10:47.502Z,22.79
2022-09-28T08:13:16.468Z,22.99
2022-09-28T08:15:50.460Z,22.98
2022-09-28T08:18:17.821Z,23.05
2022-09-28T08:21:05.896Z,23.19
2022-09-28T08:23:33.086Z,23.30
2022-09-28T08:26:03.028Z,23.42
2022-09-28T08:28:30.650Z,23.52
2022-09-28T08:31:01.102Z,23.60
2022-09-28T08:33:31.430Z,23.56
2022-09-28T08:36:00.644Z,23.48
2022-09-28T08:38:29.616Z,23.60
2022-09-28T08:41:05.754Z,23.73
2022-09-28T08:43:46.420Z,23.86
2022-09-28T08:46:17.834Z,23.83
2022-09-28T08:49:24.560Z,24.01
2022-09-28T08:52:06.113Z,24.08
2022-09-28T08:54:44.700Z,24.11
2022-09-28T08:57:37.515Z,24.18
2022-09-28T09:00:11.556Z,24.28
2022-09-28T09:02:39.928Z,24.40
2022-09-28T09:05:15.123Z,24.56
2022-09-28T09:07:56.594Z,24.69
2022-09-28T09:10:51.098Z,25.00
2022-09-28T09:13:23.834Z,25.09
2022-09-28T09:15:56.164Z,25.16
2022-09-28T09:18:38.062Z,25.31
2022-09-28T09:21:15.810Z,25.32
2022-09-28T09:23:55.708Z,25.29
2022-09-28T09:26:40.058Z,24.91
2022-09-28T09:29:31.770Z,24.87
2022-09-28T09:32:15.555Z,24.83
2022-09-28T09:34:51.505Z,24.87
2022-09-28T09:37:40.787Z,24.99
2022-09-28T09:40:25.527Z,25.03
2022-09-28T09:43:13.302Z,24.88
2022-09-28T09:45:40.361Z,24.90
2022-09-28T09:48:34.393Z,25.01
2022-09-28T09:51:29.813Z,25.11
2022-09-28T09:54:02.389Z,25.16
2022-09-28T09:56:38.912Z,25.22
2022-09-28T09:59:11.979Z,25.33
2022-09-28T10:01:45.182Z,25.40
2022-09-28T10:04:45.334Z,25.56
2022-09-28T10:07:21.120Z,25.41
2022-09-28T10:09:55.358Z,25.41
2022-09-28T10:12:23.907Z,25.44
2022-09-28T10:14:51.144Z,25.33
2022-09-28T10:17:20.073Z,25.32
2022-09-28T10:19:47.399Z,25.20
2022-09-28T10:22:21.589Z,25.16
2022-09-28T10:24:58.576Z,25.23
2022-09-28T10:27:34.638Z,25.30
2022-09-28T10:30:12.919Z,25.33
2022-09-28T10:32:44.726Z,25.52
2022-09-28T10:35:23.812Z,25.66
2022-09-28T10:38:13.322Z,25.78
2022-09-28T10:40:47.998Z,25.62
2022-09-28T10:43:25.756Z,25.53
2022-09-28T10:46:14.377Z,25.32
2022-09-28T10:48:56.285Z,25.44
2022-09-28T10:51:50.153Z,25.50
2022-09-28T10:54:20.277Z,25.46
2022-09-28T10:56:48.482Z,25.50
2022-09-28T10:59:30.766Z,25.46
2022-09-28T11:02:21.861Z,25.34
2022-09-28T11:05:02.970Z,25.17
2022-09-28T11:07:33.215Z,24.90
2022-09-28T11:10:02.040Z,24.61
2022-09-28T11:12:43.391Z,24.27
2022-09-28T11:15:28.695Z,24.19
2022-09-28T11:17:56.071Z,24.10
2022-09-28T11:20:35.778Z,24.43
2022-09-28T11:23:08.970Z,24.66
2022-09-28T11:25:35.920Z,24.72
2022-09-28T11:28:04.847Z,24.80
2022-09-28T11:30:50.499Z,24.98
2022-09-28T11:33:26.139Z,25.07
2022-09-28T11:36:12.125Z,25.13
2022-09-28T11:39:12.382Z,25.26
2022-09-28T11:41:53.247Z,25.41
2022-09-28T11:44:35.461Z,25.60
2022-09-28T11:47:14.105Z,25.70
2022-09-28T11:49:49.454Z,25.83
2022-09-28T11:52:27.763Z,25.86
2022-09-28T11:55:38.411Z,25.92
2022-09-28T11:58:34.134Z,25.99
2022-09-28T12:01:18.591Z,26.13
2022-09-28T12:03:53.168Z,26.26
2022-09-28T12:06:26.200Z,26.37
2022-09-28T12:09:07.930Z,26.33
2022-09-28T12:12:14.331Z,26.30
2022-09-28T12:14:43.305Z,26.17
2022-09-28T12:17:57.914Z,26.18
2022-09-28T12:20:27.794Z,26.22
2022-09-28T12:23:27.639Z,26.24
2022-09-28T12:26:05.118Z,26.11
2022-09-28T12:29:36.995Z,26.06
2022-09-28T12:33:05.003Z,26.11
2022-09-28T12:35:55.673Z,25.92
2022-09-28T12:38:32.601Z,25.90
2022-09-28T12:41:36.819Z,25.89
2022-09-28T12:44:35.399Z,25.82
2022-09-28T12:47:50.701Z,25.68
2022-09-28T12:50:38.483Z,25.66
2022-09-28T12:53:29.532Z,25.66
2022-09-28T12:59:18.051Z,25.55
2022-09-28T13:02:11.876Z,25.48
2022-09-28T13:05:03.126Z,25.36
2022-09-28T13:07:38.301Z,25.35
2022-09-28T13:10:21.544Z,25.36
2022-09-28T13:13:17.407Z,25.32
2022-09-28T13:15:58.981Z,25.27
2022-09-28T13:18:40.788Z,25.25
2022-09-28T13:21:36.979Z,25.22
2022-09-28T13:24:32.289Z,25.12
2022-09-28T13:27:23.635Z,25.17
2022-09-28T13:30:07.497Z,25.12
2022-09-28T13:32:37.610Z,25.06
2022-09-28T13:35:06.020Z,25.01
2022-09-28T13:37:34.634Z,25.00
2022-09-28T13:40:06.341Z,25.06
2022-09-28T13:42:46.214Z,25.02
2022-09-28T13:45:25.323Z,25.00
2022-09-28T13:47:52.617Z,25.02
2022-09-28T13:50:22.791Z,24.90
2022-09-28T13:52:57.312Z,24.92
2022-09-28T13:55:46.066Z,24.86
2022-09-28T13:58:25.462Z,24.92
2022-09-28T14:01:04.949Z,24.92
2022-09-28T14:03:55.753Z,24.96
2022-09-28T14:06:29.035Z,25.02
2022-09-28T14:08:59.583Z,24.99
2022-09-28T14:11:34.629Z,24.99
2022-09-28T14:14:23.461Z,24.86
2022-09-28T14:17:00.241Z,24.98
2022-09-28T14:19:33.693Z,24.95
2022-09-28T14:22:30.877Z,24.74
2022-09-28T14:25:23.875Z,24.52
2022-09-28T14:27:56.403Z,24.38
2022-09-28T14:30:27.044Z,24.16
2022-09-28T14:32:58.439Z,23.97
2022-09-28T14:35:31.641Z,23.75
2022-09-28T14:38:22.221Z,23.54
2022-09-28T14:41:44.900Z,23.39
2022-09-28T14:44:16.641Z,23.21
2022-09-28T14:46:48.368Z,23.07
2022-09-28T14:49:19.853Z,22.92
2022-09-28T14:52:03.301Z,22.77
2022-09-28T14:54:46.088Z,22.57
2022-09-28T14:57:24.246Z,22.47
2022-09-28T14:59:51.525Z,22.35
2022-09-28T15:02:31.393Z,22.22
2022-09-28T15:05:23.982Z,22.10
2022-09-28T15:07:53.274Z,21.98
2022-09-28T15:10:27.767Z,21.86
2022-09-28T15:12:56.287Z,21.76
2022-09-28T15:15:31.128Z,21.67
2022-09-28T15:20:36.792Z,21.37
2022-09-28T15:23:04.645Z,21.22
2022-09-28T15:25:33.186Z,21.07
2022-09-28T15:28:06.764Z,20.92
2022-09-28T15:30:36.220Z,20.77
2022-09-28T15:33:23.500Z,20.61
2022-09-28T15:35:56.651Z,20.47
2022-09-28T15:38:24.367Z,20.29
2022-09-28T15:40:51.410Z,20.14
2022-09-28T15:43:27.580Z,19.96
2022-09-28T15:46:11.525Z,19.84
2022-09-28T15:49:02.079Z,19.68
2022-09-28T15:51:30.339Z,19.54
2022-09-28T15:54:12.552Z,19.40
2022-09-28T15:56:59.796Z,19.26
2022-09-28T15:59:32.100Z,19.12
2022-09-28T16:02:16.869Z,18.92
2022-09-28T16:04:52.183Z,18.79
2022-09-28T16:07:20.535Z,18.66
2022-09-28T16:10:13.742Z,18.48
2022-09-28T16:12:42.274Z,18.30
2022-09-28T16:15:20.631Z,18.14
2022-09-28T16:18:01.487Z,18.05
2022-09-28T16:20:41.357Z,17.97
2022-09-28T16:23:24.537Z,17.87
2022-09-28T16:26:25.524Z,17.87
2022-09-28T16:29:17.681Z,17.79
2022-09-28T16:31:54.279Z,17.70
2022-09-28T16:37:32.301Z,17.58
2022-09-28T16:39:59.273Z,17.56
2022-09-28T16:42:28.477Z,17.50
2022-09-28T16:44:56.572Z,17.47
2022-09-28T16:47:24.125Z,17.47
2022-09-28T16:49:51.956Z,17.46
2022-09-28T16:52:42.224Z,17.35
2022-09-28T16:58:05.013Z,17.21
2022-09-28T17:00:32.763Z,17.18
2022-09-28T17:02:59.916Z,17.00
2022-09-28T17:05:26.936Z,16.94
2022-09-28T17:08:04.403Z,16.92
2022-09-28T17:10:50.018Z,16.89
2022-09-28T17:13:30.220Z,16.82
2022-09-28T17:15:58.167Z,16.76
2022-09-28T17:18:25.542Z,16.69
2022-09-28T17:20:56.164Z,16.62
2022-09-28T17:23:23.069Z,16.61
2022-09-28T17:25:50.416Z,16.57
2022-09-28T17:28:31.511Z,16.49
2022-09-28T17:30:58.744Z,16.49
2022-09-28T17:33:26.321Z,16.44
2022-09-28T17:36:02.102Z,16.33
2022-09-28T17:38:29.009Z,16.23
2022-09-28T17:40:56.150Z,16.18
2022-09-28T17:43:23.138Z,16.18
2022-09-28T17:45:51.222Z,16.09
2022-09-28T17:48:27.927Z,16.05
2022-09-28T17:50:55.145Z,15.98
2022-09-28T17:53:22.193Z,15.93
2022-09-28T17:55:49.275Z,15.87
2022-09-28T17:58:21.900Z,15.83
2022-09-28T18:00:52.338Z,15.77
2022-09-28T18:03:22.178Z,15.72
2022-09-28T18:05:53.986Z,15.62
2022-09-28T18:08:21.863Z,15.55
2022-09-28T18:10:53.923Z,15.55
2022-09-28T18:13:21.208Z,15.55
2022-09-28T18:15:51.915Z,15.53
2022-09-28T18:18:19.807Z,15.48
2022-09-28T18:20:47.542Z,15.41
2022-09-28T18:23:14.892Z,15.41
2022-09-28T18:25:46.479Z,15.39
2022-09-28T18:28:14.287Z,15.39
2022-09-28T18:30:42.140Z,15.42
2022-09-28T18:33:09.738Z,15.41
2022-09-28T18:35:38.290Z,15.43
2022-09-28T18:38:06.673Z,15.43
2022-09-28T18:40:37.155Z,15.42
2022-09-28T18:43:04.500Z,15.38
2022-09-28T18:45:31.719Z,15.42
2022-09-28T18:47:59.844Z,15.47
2022-09-28T18:50:27.063Z,15.49
2022-09-28T18:52:54.175Z,15.44
2022-09-28T18:55:21.309Z,15.41
2022-09-28T18:57:48.534Z,15.35
2022-09-28T19:00:15.602Z,15.37
2022-09-28T19:02:42.922Z,15.34
2022-09-28T19:05:10.935Z,15.35
2022-09-28T19:10:36.652Z,15.41
2022-09-28T19:13:03.689Z,15.41
2022-09-28T19:15:30.971Z,15.37
2022-09-28T19:17:58.311Z,15.21
2022-09-28T19:20:25.342Z,15.26
2022-09-28T19:22:52.395Z,15.25
2022-09-28T19:25:19.429Z,15.29
2022-09-28T19:27:48.475Z,15.23
2022-09-28T19:30:16.573Z,15.23
2022-09-28T19:32:43.972Z,15.26
2022-09-28T19:35:11.007Z,15.24
2022-09-28T19:37:39.553Z,15.24
2022-09-28T19:40:10.316Z,15.17
2022-09-28T19:42:40.175Z,15.18
2022-09-28T19:45:35.641Z,15.15
2022-09-28T19:48:03.866Z,15.20
2022-09-28T19:50:32.106Z,15.23
2022-09-28T19:53:09.838Z,15.25
2022-09-28T19:55:37.495Z,15.22
2022-09-28T19:58:08.237Z,15.26
2022-09-28T20:00:37.550Z,15.28
2022-09-28T20:03:05.369Z,15.28
2022-09-28T20:05:33.145Z,15.27
2022-09-28T20:08:00.103Z,15.28
2022-09-28T20:10:27.211Z,15.28
2022-09-28T20:12:59.562Z,15.29
2022-09-28T20:15:27.216Z,15.26
2022-09-28T20:17:59.239Z,15.29
2022-09-28T20:20:28.849Z,15.31
2022-09-28T20:22:55.893Z,15.27
2022-09-28T20:25:23.204Z,15.28
2022-09-28T20:27:50.280Z,15.25
2022-09-28T20:30:17.263Z,15.27
2022-09-28T20:32:49.322Z,15.20
2022-09-28T20:35:30.398Z,15.23
2022-09-28T20:38:08.133Z,15.26
2022-09-28T20:40:41.261Z,15.24
2022-09-28T20:43:08.354Z,15.23
2022-09-28T20:45:39.705Z,15.19
2022-09-28T20:48:08.560Z,15.13
2022-09-28T20:50:35.575Z,15.03
2022-09-28T20:53:02.668Z,14.94
2022-09-28T20:55:29.819Z,15.00
2022-09-28T20:57:56.770Z,14.84
2022-09-28T21:00:23.939Z,14.79
2022-09-28T21:02:53.993Z,14.71
2022-09-28T21:05:20.956Z,14.69
2022-09-28T21:07:47.980Z,14.71
2022-09-28T21:10:15.185Z,14.57
2022-09-28T21:12:42.357Z,14.53
2022-09-28T21:15:09.871Z,14.50
2022-09-28T21:17:36.820Z,14.41
2022-09-28T21:20:04.513Z,14.40
2022-09-28T21:22:31.602Z,14.38
2022-09-28T21:24:58.875Z,14.30
2022-09-28T21:27:26.101Z,14.31
2022-09-28T21:29:53.472Z,14.29
2022-09-28T21:32:20.934Z,14.21
2022-09-28T21:34:48.566Z,14.22
2022-09-28T21:37:18.790Z,14.19
2022-09-28T21:39:45.758Z,14.24
2022-09-28T21:42:12.733Z,14.26
2022-09-28T21:44:39.807Z,14.18
2022-09-28T21:47:06.851Z,14.08
2022-09-28T21:49:33.882Z,14.05
2022-09-28T21:52:03.888Z,14.09
2022-09-28T21:54:30.873Z,14.10
2022-09-28T21:57:02.269Z,14.06
2022-09-28T21:59:32.475Z,13.98
2022-09-28T22:01:59.393Z,13.95
2022-09-28T22:04:26.624Z,13.91
2022-09-28T22:06:53.961Z,13.83
2022-09-28T22:09:21.146Z,13.86
2022-09-28T22:11:49.310Z,13.79
2022-09-28T22:14:16.366Z,13.76
2022-09-28T22:16:43.569Z,13.70
2022-09-28T22:19:10.883Z,13.75
2022-09-28T22:21:38.546Z,13.72
2022-09-28T22:24:07.692Z,13.69
2022-09-28T22:26:37.016Z,13.65
2022-09-28T22:29:07.302Z,13.61
2022-09-28T22:31:37.706Z,13.63
2022-09-28T22:34:05.638Z,13.56
2022-09-28T22:36:32.976Z,13.66
2022-09-28T22:39:00.717Z,13.56
2022-09-28T22:41:28.514Z,13.53
2022-09-28T22:43:55.547Z,13.54
2022-09-28T22:46:27.933Z,13.52
2022-09-28T22:48:57.205Z,13.54
2022-09-28T22:51:25.546Z,13.53
2022-09-28T22:53:52.593Z,13.50
2022-09-28T22:56:19.583Z,13.49
2022-09-28T22:58:47.143Z,13.49
2022-09-28T23:01:22.958Z,13.41
2022-09-28T23:03:50.964Z,13.45
2022-09-28T23:06:21.154Z,13.47
2022-09-28T23:08:48.856Z,13.49
2022-09-28T23:11:16.740Z,13.47
2022-09-28T23:13:48.242Z,13.48
2022-09-28T23:16:15.512Z,13.49
2022-09-28T23:18:42.593Z,13.45
2022-09-28T23:21:18.785Z,13.49
2022-09-28T23:23:52.499Z,13.45
2022-09-28T23:29:11.803Z,13.45
2022-09-28T23:31:39.390Z,13.44
2022-09-28T23:34:07.005Z,13.49
2022-09-28T23:36:34.880Z,13.42
2022-09-28T23:39:02.301Z,13.41
2022-09-28T23:41:29.940Z,13.36
2022-09-28T23:43:57.052Z,13.29
2022-09-28T23:46:24.724Z,13.29
2022-09-28T23:48:51.929Z,13.18
2022-09-28T23:51:19.897Z,13.18
2022-09-28T23:53:47.351Z,13.17
2022-09-28T23:56:15.039Z,13.15
2022-09-28T23:58:42.662Z,13.13
